Airfield :
LOGIN :

Register | Disclaimer

   EN    FR    IT 

 










Legend :    VFR   Marginal VFR   IFR   Intensive IFR   Very Intensive IFR
Visi :
Ceiling :
>= 8 km
>= 3000ft
5 to 8 km
1000 to 3000 ft
1500m to 5 km
500 to 1000 ft
800 to 1500m
200 to 500 ft
< 800m
< 200 ft
Symbols :   Thunderstorms  Fog  Heavy snow  Heavy precipitations  Wind > 20 kt
SIGMETs :     Misc.  Thunderstorms  Icing  Turbulence  Mountain Waves  Volcanic Ashes






- Airport Elevation : 74 ft
- IATA code : NDZ


ETMN - Cuxhaven Nordholz Sea AB

CURRENT METAR :
  • 021520Z 24003KT 9999 FEW020 BKN100 06/03 Q1020 BLU BLU BECMG WHT

EXPIRED METARs :
  • 021420Z 29007KT 9999 FEW020 BKN130 BKN200 06/03 Q1020 BLU BLU
  • 021320Z 32008KT 9999 FEW018 BKN150 BKN200 07/02 Q1019 BLU BLU

TAF TAF ETMN
Valid from the 02 at 15:00 until the 03 at 00:00 UTC


021407Z 0215/0224 25007KT 9999 NSW SCT020 SCT080 BKN190
BECMG 0215/0217 22007KT 7000 -RA FEW010 OVC015
TEMPO 0217/0219 18010KT 4000 -RADZ BKN005 OVC008
TEMPO 0219/0224 18010KT 2500 DZ FEW001 OVC002



MET'MAP, your aeronautical weather chart ! - Copyright ORBIFLY December 2007 - Disclaimer

ORBIFLY MET'MAP TEAM :

Programming & Development : Alexandra Zaïnal
Original concept : Baudouin d'Aumeries
Technical & hardware support : Manuel Goepfert
Assistance : Marc-Olivier Méhu




SOURCES & CREDITS :

   NOAA